Time;durP1;ratioP1;P1;durP2;ratioP2;P2;SDS_P1;SDS_P2;PMS_P1;PMS_P2;Temp;Humidity;BMP_temperature;BMP_pressure;BME280_temperature;BME280_humidity;BME280_pressure;Samples;Min_cycle;Max_cycle;Signal;HPM_P1;HPM_P2
2023/07/30 00:01:42;;;;;;;12.43;7.18;;;;;;;17.77;100.00;92390.22;5081244;28;20181;-82
2023/07/30 00:04:07;;;;;;;13.65;7.60;;;;;;;17.78;100.00;92394.41;5064842;28;20039;-81
2023/07/30 00:06:33;;;;;;;12.07;7.80;;;;;;;17.75;100.00;92395.06;5067381;28;20028;-83
2023/07/30 00:08:58;;;;;;;9.70;7.18;;;;;;;17.71;100.00;92396.06;5082654;28;20044;-81
2023/07/30 00:11:24;;;;;;;13.27;7.40;;;;;;;17.66;100.00;92395.19;5050561;28;20140;-82
2023/07/30 00:13:50;;;;;;;15.02;8.70;;;;;;;17.61;100.00;92384.81;5076877;28;20124;-83
2023/07/30 00:16:15;;;;;;;12.90;7.90;;;;;;;17.58;100.00;92390.00;5059096;28;20115;-82
2023/07/30 00:18:41;;;;;;;13.90;8.25;;;;;;;17.56;100.00;92387.72;5063741;28;20039;-81
2023/07/30 00:21:07;;;;;;;13.05;8.00;;;;;;;17.55;100.00;92391.44;5057700;28;20678;-82
2023/07/30 00:23:32;;;;;;;14.88;7.95;;;;;;;17.52;100.00;92402.69;5080309;28;20095;-82
2023/07/30 00:25:58;;;;;;;14.45;8.52;;;;;;;17.53;100.00;92406.09;5082504;28;20486;-82
2023/07/30 00:28:23;;;;;;;14.32;7.90;;;;;;;17.49;100.00;92392.75;5087087;28;20058;-82
2023/07/30 00:30:49;;;;;;;12.23;7.88;;;;;;;17.48;100.00;92396.50;5077600;28;20035;-83
2023/07/30 00:33:15;;;;;;;11.75;7.55;;;;;;;17.45;100.00;92383.94;5084484;28;20102;-82
2023/07/30 00:35:40;;;;;;;13.05;7.75;;;;;;;17.45;100.00;92376.78;5078539;28;20029;-82
2023/07/30 00:38:06;;;;;;;13.15;8.10;;;;;;;17.41;100.00;92380.44;5084686;28;20047;-81
2023/07/30 00:40:32;;;;;;;12.23;8.23;;;;;;;17.37;100.00;92390.13;5087700;28;20035;-83
2023/07/30 00:42:57;;;;;;;15.15;7.82;;;;;;;17.32;100.00;92387.69;5077074;28;20047;-82
2023/07/30 00:45:23;;;;;;;12.05;8.15;;;;;;;17.28;100.00;92390.97;5075822;28;20514;-82
2023/07/30 00:47:49;;;;;;;14.23;8.60;;;;;;;17.26;100.00;92401.13;5061557;28;20066;-82
2023/07/30 00:50:17;;;;;;;12.65;8.07;;;;;;;17.24;100.00;92395.38;5056956;28;20036;-82
2023/07/30 00:52:43;;;;;;;12.80;8.10;;;;;;;17.26;100.00;92390.53;5081681;28;20040;-82
2023/07/30 00:55:09;;;;;;;13.57;8.82;;;;;;;17.25;100.00;92383.72;5080397;28;20020;-81
2023/07/30 00:57:36;;;;;;;13.70;9.00;;;;;;;17.20;100.00;92381.28;5086378;28;20043;-81
2023/07/30 01:00:05;;;;;;;13.93;8.95;;;;;;;17.22;100.00;92373.78;5082227;28;20020;-82
2023/07/30 01:02:35;;;;;;;17.13;8.30;;;;;;;17.19;100.00;92377.09;5076084;28;20123;-82
2023/07/30 01:05:03;;;;;;;13.90;8.57;;;;;;;17.16;100.00;92385.69;5071545;28;20032;-82
2023/07/30 01:07:29;;;;;;;15.23;8.70;;;;;;;17.16;100.00;92375.13;5074249;28;20039;-82
2023/07/30 01:09:54;;;;;;;13.43;8.75;;;;;;;17.10;100.00;92365.84;5063881;28;20028;-82
2023/07/30 01:12:21;;;;;;;12.45;7.88;;;;;;;17.08;100.00;92378.63;5032862;28;20052;-82
2023/07/30 01:14:47;;;;;;;17.33;8.75;;;;;;;17.05;100.00;92381.94;5078001;28;20036;-82
2023/07/30 01:17:14;;;;;;;15.70;8.32;;;;;;;17.02;100.00;92385.22;5062549;28;20036;-82
2023/07/30 01:19:39;;;;;;;16.95;9.07;;;;;;;17.01;100.00;92381.81;5078569;28;20532;-81
2023/07/30 01:22:05;;;;;;;14.55;8.35;;;;;;;16.99;100.00;92375.31;5063480;28;20039;-82
2023/07/30 01:24:31;;;;;;;13.60;8.85;;;;;;;16.99;100.00;92375.31;5074588;28;20090;-82
2023/07/30 01:27:04;;;;;;;14.65;8.30;;;;;;;16.98;100.00;92373.78;5079142;28;20051;-82
2023/07/30 01:29:42;;;;;;;11.90;7.32;;;;;;;16.96;100.00;92374.09;5072712;28;20035;-81
2023/07/30 01:32:10;;;;;;;16.08;8.52;;;;;;;16.96;100.00;92381.25;5077432;28;20397;-82
2023/07/30 01:34:38;;;;;;;13.55;7.70;;;;;;;16.93;100.00;92377.41;5077069;28;20033;-82
2023/07/30 01:37:10;;;;;;;15.68;8.35;;;;;;;16.89;100.00;92376.50;5080026;28;20051;-82
2023/07/30 01:39:38;;;;;;;12.68;7.65;;;;;;;16.85;100.00;92379.00;5082115;28;20165;-81
2023/07/30 01:42:04;;;;;;;11.73;7.88;;;;;;;16.83;100.00;92381.22;5056022;28;20047;-82
2023/07/30 01:44:29;;;;;;;11.55;7.35;;;;;;;16.78;100.00;92389.31;5079945;28;20044;-81
2023/07/30 01:46:55;;;;;;;14.55;7.25;;;;;;;16.76;100.00;92388.13;5064935;28;20047;-81
2023/07/30 01:49:21;;;;;;;13.02;7.57;;;;;;;16.71;100.00;92385.69;5063184;28;20375;-82
2023/07/30 01:51:47;;;;;;;14.25;7.25;;;;;;;16.67;100.00;92390.84;5081294;28;20028;-82
2023/07/30 01:54:12;;;;;;;13.00;7.25;;;;;;;16.63;100.00;92389.94;5061194;28;20044;-82
2023/07/30 01:56:39;;;;;;;15.38;8.10;;;;;;;16.63;100.00;92379.38;5075917;28;20060;-82
2023/07/30 01:59:04;;;;;;;14.65;7.70;;;;;;;16.70;100.00;92384.88;5058779;28;20448;-82
2023/07/30 02:01:30;;;;;;;14.15;8.10;;;;;;;16.64;100.00;92381.69;5068755;28;20036;-82
2023/07/30 02:03:56;;;;;;;13.05;7.90;;;;;;;16.59;100.00;92381.09;5049872;28;20082;-82
2023/07/30 02:06:21;;;;;;;15.65;7.22;;;;;;;16.54;100.00;92386.59;5082122;28;20531;-81
2023/07/30 02:08:47;;;;;;;13.27;8.15;;;;;;;16.45;100.00;92384.81;5056960;28;20033;-82
2023/07/30 02:11:13;;;;;;;18.48;8.60;;;;;;;16.42;100.00;92380.19;5061472;28;20024;-81
2023/07/30 02:13:38;;;;;;;17.42;9.18;;;;;;;16.39;100.00;92369.47;5079127;28;20046;-81
2023/07/30 02:16:04;;;;;;;13.48;8.90;;;;;;;16.41;100.00;92372.56;5057671;28;20423;-82
2023/07/30 02:18:30;;;;;;;14.07;9.45;;;;;;;16.40;100.00;92366.53;5065362;28;20566;-82
2023/07/30 02:20:55;;;;;;;15.05;9.18;;;;;;;16.42;100.00;92368.84;5067262;28;20036;-81
2023/07/30 02:23:21;;;;;;;14.85;9.45;;;;;;;16.39;100.00;92357.06;5079910;28;20477;-82
2023/07/30 02:25:47;;;;;;;15.35;9.15;;;;;;;16.39;100.00;92359.69;5073525;28;20040;-82
2023/07/30 02:28:12;;;;;;;16.50;9.50;;;;;;;16.41;100.00;92359.34;5089176;28;20034;-81
2023/07/30 02:30:38;;;;;;;13.85;8.95;;;;;;;16.35;100.00;92358.81;5053996;28;20039;-81
2023/07/30 02:33:04;;;;;;;14.30;8.88;;;;;;;16.36;100.00;92356.94;5056334;28;20724;-82
2023/07/30 02:35:30;;;;;;;16.05;9.32;;;;;;;16.32;100.00;92362.06;5074196;28;20051;-82
2023/07/30 02:37:55;;;;;;;14.10;9.27;;;;;;;16.30;100.00;92366.13;5080439;28;20029;-82
2023/07/30 02:40:21;;;;;;;15.13;8.63;;;;;;;16.28;100.00;92363.03;5056426;28;20036;-82
2023/07/30 02:42:46;;;;;;;14.27;8.63;;;;;;;16.27;100.00;92366.78;5063344;28;20037;-82
2023/07/30 02:45:12;;;;;;;14.82;9.57;;;;;;;16.24;100.00;92368.97;5070124;28;20059;-82
2023/07/30 02:47:38;;;;;;;17.33;9.13;;;;;;;16.24;100.00;92362.94;5063319;28;20037;-81
2023/07/30 02:50:05;;;;;;;24.60;9.45;;;;;;;16.26;100.00;92366.03;5076522;28;20079;-81
2023/07/30 02:52:31;;;;;;;17.10;8.88;;;;;;;16.27;100.00;92361.50;5066653;28;20044;-81
2023/07/30 02:54:57;;;;;;;17.63;8.95;;;;;;;16.24;100.00;92355.78;5056630;28;20037;-82
2023/07/30 02:57:23;;;;;;;17.00;8.82;;;;;;;16.21;100.00;92368.84;5063929;28;20043;-82
2023/07/30 02:59:48;;;;;;;16.00;9.00;;;;;;;16.17;100.00;92365.34;5073067;28;20028;-81
2023/07/30 03:02:14;;;;;;;15.77;8.80;;;;;;;16.13;100.00;92353.88;5066771;28;20043;-82
2023/07/30 03:04:40;;;;;;;16.85;9.07;;;;;;;16.08;100.00;92343.50;5061858;28;20037;-82
2023/07/30 03:07:06;;;;;;;14.52;8.98;;;;;;;16.09;100.00;92353.72;5065031;28;20156;-82
2023/07/30 03:09:32;;;;;;;14.73;8.85;;;;;;;16.11;100.00;92358.69;5065239;28;20043;-82
2023/07/30 03:11:58;;;;;;;18.92;9.55;;;;;;;16.13;100.00;92348.59;5065024;28;20041;-82
2023/07/30 03:14:24;;;;;;;18.77;9.45;;;;;;;16.12;100.00;92350.47;5067059;28;20600;-82
2023/07/30 03:16:50;;;;;;;22.80;10.70;;;;;;;16.13;100.00;92351.22;5059838;28;20029;-82
2023/07/30 03:19:16;;;;;;;16.17;9.98;;;;;;;16.10;100.00;92347.38;5061244;28;20036;-82
2023/07/30 03:21:42;;;;;;;16.65;8.65;;;;;;;16.06;100.00;92349.09;5072951;28;20028;-82
2023/07/30 03:24:07;;;;;;;16.58;9.60;;;;;;;16.06;100.00;92361.53;5068497;28;20036;-82
2023/07/30 03:26:33;;;;;;;15.35;9.55;;;;;;;16.05;100.00;92357.34;5068018;28;20040;-82
2023/07/30 03:28:59;;;;;;;15.13;8.95;;;;;;;16.06;100.00;92350.97;5067837;28;20457;-82
2023/07/30 03:31:24;;;;;;;15.70;9.18;;;;;;;16.06;100.00;92345.69;5068127;28;20033;-81
2023/07/30 03:33:51;;;;;;;14.65;9.13;;;;;;;16.05;100.00;92338.84;5059706;28;20033;-82
2023/07/30 03:36:17;;;;;;;15.60;9.10;;;;;;;16.00;100.00;92342.47;5062774;28;20063;-82
2023/07/30 03:38:43;;;;;;;15.98;8.70;;;;;;;15.97;100.00;92345.75;5063008;28;20017;-80
2023/07/30 03:41:10;;;;;;;15.93;9.20;;;;;;;15.98;100.00;92336.72;5067891;28;20098;-82
2023/07/30 03:43:36;;;;;;;18.90;9.75;;;;;;;15.94;100.00;92335.81;5063352;28;20058;-82
2023/07/30 03:46:02;;;;;;;16.83;9.15;;;;;;;15.95;100.00;92338.16;5080509;28;20058;-82
2023/07/30 03:48:28;;;;;;;15.02;8.73;;;;;;;15.93;100.00;92345.63;5089296;28;20028;-82
2023/07/30 03:50:54;;;;;;;16.38;9.27;;;;;;;15.90;100.00;92348.16;5085566;28;20089;-82
2023/07/30 03:53:20;;;;;;;14.35;8.80;;;;;;;15.86;100.00;92342.72;5080227;28;20056;-81
2023/07/30 03:55:46;;;;;;;15.90;9.68;;;;;;;15.88;100.00;92340.53;5065936;28;20074;-82
2023/07/30 03:58:12;;;;;;;17.98;8.73;;;;;;;15.90;100.00;92343.63;5068323;28;20036;-82
2023/07/30 04:00:38;;;;;;;14.30;8.57;;;;;;;15.93;100.00;92339.56;5063986;28;20063;-83
2023/07/30 04:03:03;;;;;;;16.25;8.02;;;;;;;15.91;100.00;92339.88;5083424;28;20071;-82
2023/07/30 04:05:30;;;;;;;12.52;7.53;;;;;;;15.85;100.00;92337.75;5086594;28;20036;-82
2023/07/30 04:07:56;;;;;;;14.75;7.82;;;;;;;15.81;100.00;92348.19;5085478;28;20469;-82
2023/07/30 04:10:21;;;;;;;12.68;7.28;;;;;;;15.78;100.00;92349.63;5085821;28;20096;-82
2023/07/30 04:12:47;;;;;;;16.23;7.32;;;;;;;15.76;100.00;92343.09;5070371;28;20481;-82
2023/07/30 04:15:14;;;;;;;12.65;6.53;;;;;;;15.78;100.00;92346.19;5078018;28;20040;-82
2023/07/30 04:17:40;;;;;;;12.50;7.07;;;;;;;15.77;100.00;92349.94;5068481;28;20085;-81
2023/07/30 04:20:06;;;;;;;15.32;8.32;;;;;;;15.75;100.00;92352.13;5066380;28;20369;-81
2023/07/30 04:22:32;;;;;;;10.82;7.00;;;;;;;15.72;100.00;92356.19;5078632;28;20118;-81
2023/07/30 04:24:57;;;;;;;14.43;6.93;;;;;;;15.72;100.00;92358.03;5081265;28;20032;-82
2023/07/30 04:27:23;;;;;;;13.98;7.53;;;;;;;15.74;100.00;92361.13;5090067;28;20101;-81
2023/07/30 04:29:48;;;;;;;12.52;7.00;;;;;;;15.75;100.00;92360.81;5055064;28;20028;-82
2023/07/30 04:32:14;;;;;;;15.25;7.32;;;;;;;15.76;100.00;92364.22;5089217;28;20028;-82
2023/07/30 04:34:40;;;;;;;14.13;7.07;;;;;;;15.75;100.00;92363.44;5088397;28;20473;-82
2023/07/30 04:37:06;;;;;;;13.60;7.25;;;;;;;15.76;100.00;92366.84;5094669;28;20039;-82
2023/07/30 04:39:35;;;;;;;13.25;7.10;;;;;;;15.77;100.00;92365.78;5067490;28;20040;-82
2023/07/30 04:42:01;;;;;;;11.85;6.88;;;;;;;15.77;100.00;92368.41;5068072;28;20029;-82
2023/07/30 04:44:27;;;;;;;14.68;6.97;;;;;;;15.75;100.00;92367.94;5072679;28;20345;-82
2023/07/30 04:46:56;;;;;;;10.98;6.75;;;;;;;15.78;100.00;92367.31;5062381;28;20032;-82
2023/07/30 04:49:22;;;;;;;11.15;6.82;;;;;;;15.81;100.00;92364.03;5068728;28;20046;-82
2023/07/30 04:51:47;;;;;;;10.20;6.75;;;;;;;15.86;100.00;92361.19;5081593;28;20036;-82
2023/07/30 04:54:15;;;;;;;11.77;7.00;;;;;;;15.92;100.00;92369.69;5062996;28;20048;-82
2023/07/30 04:56:41;;;;;;;12.55;7.43;;;;;;;15.98;100.00;92363.91;5064398;28;20402;-83
2023/07/30 04:59:06;;;;;;;13.93;7.63;;;;;;;16.05;100.00;92373.94;5089868;28;20039;-82
2023/07/30 05:01:32;;;;;;;17.55;7.35;;;;;;;16.07;100.00;92363.06;5065918;28;20466;-81
2023/07/30 05:03:58;;;;;;;13.73;7.25;;;;;;;16.16;100.00;92376.97;5087928;28;20046;-82
2023/07/30 05:06:24;;;;;;;12.13;6.78;;;;;;;16.20;100.00;92381.28;5087227;28;20527;-82
2023/07/30 05:08:49;;;;;;;14.98;7.45;;;;;;;16.22;100.00;92370.41;5089473;28;20035;-83
2023/07/30 05:11:15;;;;;;;11.75;6.65;;;;;;;16.26;100.00;92376.59;5067141;28;20036;-82
2023/07/30 05:13:40;;;;;;;11.45;6.68;;;;;;;16.29;100.00;92373.28;5076861;28;20140;-83
2023/07/30 05:16:06;;;;;;;12.02;6.85;;;;;;;16.31;100.00;92379.03;5087422;28;20025;-82
2023/07/30 05:18:32;;;;;;;14.80;7.18;;;;;;;16.39;100.00;92380.84;5060553;28;20073;-81
2023/07/30 05:20:58;;;;;;;11.90;7.05;;;;;;;16.50;100.00;92378.53;5066957;28;20497;-83
2023/07/30 05:23:24;;;;;;;13.80;7.65;;;;;;;16.68;100.00;92381.03;5080455;28;20066;-83
2023/07/30 05:25:49;;;;;;;13.73;7.13;;;;;;;16.76;100.00;92383.59;5084970;28;20027;-83
2023/07/30 05:28:15;;;;;;;17.10;6.80;;;;;;;16.82;100.00;92387.63;5083062;28;20085;-83
2023/07/30 05:30:41;;;;;;;13.13;6.78;;;;;;;16.89;100.00;92386.28;5082460;28;20032;-82
2023/07/30 05:33:06;;;;;;;13.15;6.97;;;;;;;16.96;100.00;92386.53;5085859;28;20098;-81
2023/07/30 05:35:32;;;;;;;13.63;7.47;;;;;;;17.05;100.00;92389.88;5084273;28;20036;-83
2023/07/30 05:37:58;;;;;;;13.40;7.57;;;;;;;17.21;100.00;92390.00;5081453;28;20028;-83
2023/07/30 05:40:23;;;;;;;16.27;8.05;;;;;;;17.34;100.00;92390.75;5086456;28;20093;-83
2023/07/30 05:42:49;;;;;;;15.90;8.40;;;;;;;17.60;100.00;92393.09;5077899;28;20178;-83
2023/07/30 05:45:15;;;;;;;17.58;9.65;;;;;;;17.62;100.00;92388.25;5069778;28;20053;-83
2023/07/30 05:47:40;;;;;;;16.38;9.15;;;;;;;17.63;100.00;92390.56;5047466;28;20045;-83
2023/07/30 05:50:07;;;;;;;13.30;8.25;;;;;;;17.62;100.00;92389.00;5080209;28;20059;-83
2023/07/30 05:52:33;;;;;;;13.95;8.60;;;;;;;17.76;100.00;92393.97;5058610;28;20043;-83
2023/07/30 05:54:59;;;;;;;14.07;8.90;;;;;;;17.73;100.00;92391.22;5061644;28;20478;-83
2023/07/30 05:57:25;;;;;;;14.25;7.88;;;;;;;18.16;100.00;92403.88;5060358;28;20028;-82
2023/07/30 05:59:51;;;;;;;13.77;8.48;;;;;;;18.17;100.00;92404.63;5070612;28;20036;-84
2023/07/30 06:02:17;;;;;;;14.68;8.27;;;;;;;18.27;100.00;92404.94;5064842;28;20472;-87
2023/07/30 06:04:42;;;;;;;14.88;8.40;;;;;;;18.49;100.00;92406.31;5068275;28;20029;-83
2023/07/30 06:07:08;;;;;;;12.63;7.65;;;;;;;19.23;100.00;92406.00;5059958;28;20433;-83
2023/07/30 06:09:34;;;;;;;14.73;7.88;;;;;;;19.94;100.00;92400.84;5073876;28;20036;-84
2023/07/30 06:12:00;;;;;;;16.02;8.00;;;;;;;20.63;100.00;92409.13;5048734;28;20035;-84
2023/07/30 06:14:26;;;;;;;14.52;7.80;;;;;;;21.14;100.00;92406.28;5063662;28;20214;-84
2023/07/30 06:16:53;;;;;;;12.73;7.45;;;;;;;21.69;100.00;92414.06;5065177;28;20100;-84
2023/07/30 06:19:19;;;;;;;12.57;7.55;;;;;;;21.98;100.00;92407.25;5069115;28;20017;-85
2023/07/30 06:21:44;;;;;;;13.98;7.45;;;;;;;22.14;100.00;92417.00;5078925;28;20510;-84
2023/07/30 06:24:10;;;;;;;14.93;7.85;;;;;;;22.64;100.00;92420.34;5017157;28;20037;-85
2023/07/30 06:26:36;;;;;;;14.30;7.90;;;;;;;23.10;100.00;92414.00;5052466;28;20124;-85
2023/07/30 06:29:01;;;;;;;12.00;7.38;;;;;;;22.97;100.00;92418.81;5068078;28;20033;-84
2023/07/30 06:31:27;;;;;;;13.32;7.70;;;;;;;23.49;100.00;92422.41;5038585;28;20084;-86
2023/07/30 06:33:53;;;;;;;12.23;7.38;;;;;;;23.81;100.00;92417.34;5061232;28;20474;-85
2023/07/30 06:36:18;;;;;;;14.35;7.95;;;;;;;23.31;100.00;92416.91;5058188;28;21125;-85
2023/07/30 06:38:44;;;;;;;16.42;7.45;;;;;;;23.57;100.00;92420.56;5057986;28;20471;-86
2023/07/30 06:41:10;;;;;;;15.15;7.43;;;;;;;23.54;100.00;92426.66;5056228;28;20029;-86
2023/07/30 06:43:35;;;;;;;18.55;8.40;;;;;;;23.56;100.00;92419.03;5063989;28;20402;-86
2023/07/30 06:46:01;;;;;;;13.48;7.80;;;;;;;23.67;100.00;92417.22;5038652;28;20562;-85
2023/07/30 06:48:27;;;;;;;17.13;8.15;;;;;;;23.67;100.00;92428.69;5067805;28;20498;-85
2023/07/30 06:50:53;;;;;;;17.45;8.50;;;;;;;23.62;100.00;92422.88;5076975;28;20025;-85
2023/07/30 06:53:18;;;;;;;12.50;7.45;;;;;;;23.92;100.00;92430.81;5071405;28;20123;-85
2023/07/30 06:55:44;;;;;;;13.73;7.25;;;;;;;24.03;100.00;92426.31;5050361;28;20029;-83
2023/07/30 06:58:10;;;;;;;11.55;7.28;;;;;;;24.12;100.00;92428.66;5068376;28;20055;-83
2023/07/30 07:00:36;;;;;;;17.83;8.20;;;;;;;24.33;100.00;92435.28;5038993;28;20041;-84
2023/07/30 07:03:01;;;;;;;13.48;7.00;;;;;;;24.70;100.00;92435.09;5066732;28;20029;-84
2023/07/30 07:05:27;;;;;;;13.55;6.80;;;;;;;24.82;100.00;92434.03;5052631;28;20510;-82
2023/07/30 07:07:53;;;;;;;11.43;7.13;;;;;;;24.44;100.00;92446.81;5063979;28;20041;-84
2023/07/30 07:10:18;;;;;;;11.00;7.10;;;;;;;23.16;100.00;92447.25;5046168;28;20032;-83
2023/07/30 07:12:44;;;;;;;15.95;8.18;;;;;;;22.55;100.00;92441.94;5052113;28;20033;-86
2023/07/30 07:15:09;;;;;;;12.52;7.13;;;;;;;22.18;100.00;92444.47;5070587;28;20036;-84
2023/07/30 07:17:35;;;;;;;12.00;6.80;;;;;;;22.01;100.00;92443.09;5031312;28;20032;-82
2023/07/30 07:20:03;;;;;;;14.05;7.75;;;;;;;21.51;100.00;92450.28;5047496;28;20127;-83
2023/07/30 07:22:29;;;;;;;12.88;7.38;;;;;;;21.35;100.00;92443.16;5071182;28;20454;-85
2023/07/30 07:24:54;;;;;;;12.32;7.22;;;;;;;21.32;100.00;92438.53;5069112;28;20040;-85
2023/07/30 07:27:20;;;;;;;16.20;8.48;;;;;;;21.17;100.00;92436.75;5060909;28;20472;-82
2023/07/30 07:29:46;;;;;;;9.65;6.57;;;;;;;21.56;100.00;92447.31;5046919;28;20041;-85
2023/07/30 07:32:11;;;;;;;11.85;6.97;;;;;;;21.69;100.00;92450.59;5065420;28;20036;-87
2023/07/30 07:34:37;;;;;;;11.57;6.65;;;;;;;21.57;100.00;92438.19;5081074;28;20077;-85
2023/07/30 07:37:03;;;;;;;10.98;7.43;;;;;;;21.78;100.00;92443.88;5078176;28;20048;-86
2023/07/30 07:39:29;;;;;;;10.85;6.85;;;;;;;22.02;100.00;92447.28;5081336;28;20025;-85
2023/07/30 07:41:55;;;;;;;13.00;6.60;;;;;;;22.06;100.00;92448.09;5080570;28;20044;-85
2023/07/30 07:44:22;;;;;;;14.63;7.55;;;;;;;21.96;100.00;92446.81;5060023;28;20048;-86
2023/07/30 07:46:48;;;;;;;13.40;7.50;;;;;;;21.74;100.00;92440.38;5063647;28;20037;-84
2023/07/30 07:49:13;;;;;;;10.55;6.60;;;;;;;21.65;100.00;92436.44;5070608;28;20094;-84
2023/07/30 07:51:39;;;;;;;11.32;6.63;;;;;;;21.98;100.00;92431.25;5061786;28;20501;-85
2023/07/30 07:54:04;;;;;;;15.63;7.47;;;;;;;22.22;100.00;92435.44;5078746;28;20033;-84
2023/07/30 07:56:31;;;;;;;11.60;7.18;;;;;;;22.27;100.00;92438.91;5038961;28;20272;-85
2023/07/30 07:58:57;;;;;;;12.32;7.20;;;;;;;21.91;100.00;92435.69;5078922;28;20029;-85
2023/07/30 08:01:23;;;;;;;12.10;7.40;;;;;;;21.69;100.00;92435.38;5080808;28;20029;-84
2023/07/30 08:03:48;;;;;;;15.18;7.70;;;;;;;21.79;100.00;92428.66;5063448;28;20040;-83
2023/07/30 08:06:14;;;;;;;14.10;7.55;;;;;;;21.76;100.00;92435.47;5074891;28;20040;-85
2023/07/30 08:08:40;;;;;;;12.35;7.50;;;;;;;21.74;100.00;92440.38;5059136;28;20038;-85
2023/07/30 08:11:08;;;;;;;12.75;6.95;;;;;;;22.03;100.00;92438.16;5061960;28;20063;-85
2023/07/30 08:13:35;;;;;;;14.32;7.13;;;;;;;22.32;100.00;92433.28;5077170;28;20040;-85
2023/07/30 08:16:01;;;;;;;12.13;7.05;;;;;;;22.83;100.00;92425.53;5058902;28;20514;-84
2023/07/30 08:18:27;;;;;;;13.45;6.97;;;;;;;23.12;100.00;92430.44;5074333;28;20478;-84
2023/07/30 08:20:53;;;;;;;18.70;6.50;;;;;;;22.92;100.00;92427.94;5068009;28;20110;-83
2023/07/30 08:23:19;;;;;;;11.77;6.50;;;;;;;22.89;100.00;92417.19;5067942;28;20033;-83
2023/07/30 08:25:44;;;;;;;14.35;7.38;;;;;;;22.79;100.00;92418.63;5073461;28;20068;-82
2023/07/30 08:28:10;;;;;;;13.57;7.25;;;;;;;22.60;100.00;92425.63;5075116;28;20037;-82
2023/07/30 08:30:35;;;;;;;11.02;6.32;;;;;;;22.55;100.00;92420.63;5059406;28;20037;-82
2023/07/30 08:33:01;;;;;;;11.55;6.30;;;;;;;22.64;100.00;92426.44;5059725;28;20021;-81
2023/07/30 08:35:26;;;;;;;10.93;5.97;;;;;;;22.65;100.00;92412.00;5059562;28;20075;-83
2023/07/30 08:37:53;;;;;;;14.23;6.50;;;;;;;22.59;100.00;92413.44;5075489;28;20082;-82
2023/07/30 08:40:23;;;;;;;9.85;6.68;;;;;;;22.64;100.00;92418.44;5059204;28;20051;-82
2023/07/30 08:42:53;;;;;;;13.15;6.63;;;;;;;22.76;100.00;92422.00;5063437;28;20044;-82
2023/07/30 08:45:19;;;;;;;11.40;6.70;;;;;;;22.61;100.00;92421.09;5075593;28;20071;-83
2023/07/30 08:47:46;;;;;;;10.23;6.40;;;;;;;22.70;100.00;92426.91;5074663;28;20028;-82
2023/07/30 08:50:12;;;;;;;10.95;6.30;;;;;;;22.98;100.00;92428.34;5066934;28;20502;-81
2023/07/30 08:52:38;;;;;;;13.07;6.30;;;;;;;23.05;100.00;92423.88;5057410;28;20390;-82
2023/07/30 08:55:05;;;;;;;9.85;6.00;;;;;;;23.16;100.00;92420.56;5075252;28;20430;-83
2023/07/30 08:57:31;;;;;;;14.10;6.70;;;;;;;22.99;100.00;92416.53;5073185;28;20414;-82
2023/07/30 09:00:10;;;;;;;11.98;6.13;;;;;;;22.48;100.00;92423.19;5074697;28;20045;-83
2023/07/30 09:02:36;;;;;;;11.23;6.40;;;;;;;22.24;100.00;92421.72;5074474;28;20388;-82
2023/07/30 09:05:03;;;;;;;14.00;6.40;;;;;;;22.01;100.00;92406.53;5077284;28;20103;-83
2023/07/30 09:07:29;;;;;;;10.82;6.57;;;;;;;22.07;100.00;92407.00;5075941;28;20137;-82
2023/07/30 09:09:54;;;;;;;11.98;6.55;;;;;;;22.07;100.00;92403.59;5057783;28;20044;-82
2023/07/30 09:12:26;;;;;;;8.82;5.63;;;;;;;22.40;100.00;92402.91;5055304;28;20037;-82
2023/07/30 09:14:52;;;;;;;10.18;6.25;;;;;;;22.52;100.00;92413.34;5072107;28;20055;-82
2023/07/30 09:17:18;;;;;;;12.27;6.50;;;;;;;22.83;100.00;92414.06;5076486;28;20029;-81
2023/07/30 09:19:46;;;;;;;10.48;6.55;;;;;;;22.85;100.00;92417.16;5041253;28;20039;-82
2023/07/30 09:22:13;;;;;;;10.82;6.95;;;;;;;22.68;100.00;92407.06;5076366;28;20033;-82
2023/07/30 09:24:44;;;;;;;10.13;6.40;;;;;;;22.74;100.00;92409.03;5057641;28;20392;-82
2023/07/30 09:27:10;;;;;;;12.90;6.85;;;;;;;22.42;100.00;92420.06;5064243;28;20111;-81
2023/07/30 09:29:36;;;;;;;11.02;6.35;;;;;;;22.42;100.00;92416.63;5070230;28;20127;-81
2023/07/30 09:32:02;;;;;;;12.00;7.15;;;;;;;22.45;100.00;92422.03;5067479;28;20032;-81
2023/07/30 09:34:27;;;;;;;18.17;6.82;;;;;;;22.80;100.00;92430.81;5074580;28;20036;-81
2023/07/30 09:36:54;;;;;;;10.23;6.10;;;;;;;22.94;100.00;92430.97;5075910;28;20501;-82
2023/07/30 09:39:25;;;;;;;10.02;6.60;;;;;;;23.08;100.00;92425.06;5076582;28;20121;-84
2023/07/30 09:41:52;;;;;;;43.80;35.08;;;;;;;23.13;100.00;92418.63;5075730;28;20039;-83
2023/07/30 09:44:20;;;;;;;11.45;6.28;;;;;;;23.17;100.00;92414.09;5070582;28;20136;-83
2023/07/30 09:46:49;;;;;;;11.00;6.65;;;;;;;23.16;100.00;92415.22;5041602;28;20033;-83
2023/07/30 09:49:16;;;;;;;12.30;7.10;;;;;;;23.19;100.00;92425.16;5056887;28;20532;-82
2023/07/30 09:51:42;;;;;;;9.10;5.93;;;;;;;23.25;100.00;92421.81;5042963;28;20108;-82
2023/07/30 09:54:12;;;;;;;12.45;6.93;;;;;;;23.53;100.00;92425.91;5061537;28;20033;-82
2023/07/30 09:56:39;;;;;;;10.50;6.53;;;;;;;23.77;100.00;92423.81;5075788;28;20036;-82
2023/07/30 09:59:09;;;;;;;13.07;6.45;;;;;;;23.67;100.00;92417.22;5056616;28;20108;-82
2023/07/30 10:01:49;;;;;;;9.95;6.70;;;;;;;23.88;100.00;92419.31;5056493;28;20505;-82
2023/07/30 10:04:18;;;;;;;11.13;7.18;;;;;;;23.91;100.00;92423.91;5048184;28;20056;-82
2023/07/30 10:06:49;;;;;;;11.93;6.72;;;;;;;23.96;100.00;92428.16;5073003;28;20042;-81
2023/07/30 10:09:19;;;;;;;9.52;6.43;;;;;;;24.02;100.00;92415.97;5074847;28;20427;-82
2023/07/30 10:11:48;;;;;;;16.20;6.82;;;;;;;23.78;100.00;92418.09;5062583;28;20045;-82
2023/07/30 10:14:15;;;;;;;15.50;7.68;;;;;;;23.66;100.00;92413.00;5055910;28;20395;-82
2023/07/30 10:16:53;;;;;;;12.15;6.55;;;;;;;23.93;100.00;92412.84;5056415;28;20032;-81
2023/07/30 10:19:25;;;;;;;9.75;6.22;;;;;;;24.17;100.00;92404.25;5075331;28;20062;-82
2023/07/30 10:21:53;;;;;;;9.77;6.57;;;;;;;24.22;100.00;92411.16;5057392;28;20422;-81
2023/07/30 10:24:19;;;;;;;11.57;7.43;;;;;;;23.97;100.00;92414.41;5055656;28;20488;-81
2023/07/30 10:26:44;;;;;;;9.73;6.22;;;;;;;23.71;100.00;92407.34;5041090;28;20048;-82
2023/07/30 10:29:15;;;;;;;11.52;6.68;;;;;;;23.72;100.00;92408.88;5054625;28;20109;-82
2023/07/30 10:31:42;;;;;;;17.52;7.53;;;;;;;23.89;100.00;92410.19;5060267;28;20032;-83
2023/07/30 10:34:10;;;;;;;14.40;7.22;;;;;;;23.56;100.00;92411.03;5055585;28;20086;-82
2023/07/30 10:36:44;;;;;;;13.93;8.13;;;;;;;23.81;100.00;92416.59;5057221;28;22233;-82
2023/07/30 10:39:13;;;;;;;12.90;7.60;;;;;;;23.98;100.00;92410.63;5050849;28;20028;-82
2023/07/30 10:41:38;;;;;;;11.65;6.07;;;;;;;24.33;100.00;92408.53;5074392;28;20025;-81
2023/07/30 10:44:04;;;;;;;10.75;7.00;;;;;;;24.06;100.00;92422.13;5068872;28;20053;-82
2023/07/30 10:46:30;;;;;;;16.75;7.60;;;;;;;24.09;100.00;92410.66;5075393;28;20029;-83
2023/07/30 10:48:56;;;;;;;9.88;6.25;;;;;;;24.05;100.00;92420.59;5056188;28;20671;-82
2023/07/30 10:51:23;;;;;;;10.98;6.75;;;;;;;23.96;100.00;92412.91;5036649;28;20475;-82
2023/07/30 10:53:50;;;;;;;10.27;6.05;;;;;;;23.94;100.00;92419.75;5043500;28;20064;-83
2023/07/30 10:56:26;;;;;;;10.77;6.30;;;;;;;23.97;100.00;92419.00;5068807;28;20039;-80
2023/07/30 10:58:53;;;;;;;10.30;6.15;;;;;;;24.08;100.00;92417.19;5059590;28;20036;-82
2023/07/30 11:01:19;;;;;;;15.43;6.70;;;;;;;24.18;100.00;92413.78;5071651;28;20029;-82
2023/07/30 11:03:51;;;;;;;11.07;6.60;;;;;;;23.82;100.00;92412.78;5073592;28;20079;-82
2023/07/30 11:06:22;;;;;;;13.88;6.40;;;;;;;24.08;100.00;92417.19;5078934;28;20047;-82
2023/07/30 11:08:48;;;;;;;10.48;6.28;;;;;;;24.22;100.00;92427.19;5067042;28;20033;-82
2023/07/30 11:11:14;;;;;;;11.43;6.20;;;;;;;24.34;100.00;92426.09;5058351;28;20104;-82
2023/07/30 11:13:41;;;;;;;10.63;6.30;;;;;;;24.14;100.00;92426.38;5076416;28;20032;-82